createdAt,value
2022-09-23T00:00:19.879Z,11.77
2022-09-23T00:03:23.964Z,6.78
2022-09-23T00:06:28.052Z,12.80
2022-09-23T00:09:30.742Z,8.45
2022-09-23T00:12:33.536Z,5.50
2022-09-23T00:15:39.338Z,5.85
2022-09-23T00:18:43.714Z,6.93
2022-09-23T00:21:46.372Z,7.47
2022-09-23T00:24:49.106Z,8.20
2022-09-23T00:27:51.862Z,9.02
2022-09-23T00:30:54.585Z,9.38
2022-09-23T00:33:59.892Z,12.50
2022-09-23T00:37:02.607Z,7.30
2022-09-23T00:40:06.181Z,10.70
2022-09-23T00:43:10.870Z,13.05
2022-09-23T00:46:16.598Z,8.80
2022-09-23T00:49:24.753Z,7.35
2022-09-23T00:52:28.034Z,6.70
2022-09-23T00:55:32.955Z,8.27
2022-09-23T00:58:37.079Z,5.57
2022-09-23T01:01:39.870Z,6.35
2022-09-23T01:04:44.087Z,8.80
2022-09-23T01:07:46.904Z,8.15
2022-09-23T01:10:52.253Z,7.63
2022-09-23T01:14:00.471Z,16.83
2022-09-23T01:17:05.221Z,8.88
2022-09-23T01:20:32.368Z,7.75
2022-09-23T01:23:57.205Z,8.27
2022-09-23T01:27:08.542Z,8.45
2022-09-23T01:30:18.136Z,9.63
2022-09-23T01:33:24.261Z,9.35
2022-09-23T01:36:28.753Z,9.30
2022-09-23T01:39:35.480Z,7.45
2022-09-23T01:42:39.611Z,12.23
2022-09-23T01:45:44.146Z,8.57
2022-09-23T01:48:51.637Z,8.90
2022-09-23T01:51:56.993Z,9.70
2022-09-23T01:55:06.594Z,8.88
2022-09-23T01:58:10.969Z,7.95
2022-09-23T02:01:20.300Z,8.20
2022-09-23T02:04:26.307Z,10.70
2022-09-23T02:07:30.696Z,10.90
2022-09-23T02:10:36.004Z,8.30
2022-09-23T02:13:41.168Z,7.00
2022-09-23T02:16:45.146Z,9.32
2022-09-23T02:19:51.814Z,8.15
2022-09-23T02:22:57.571Z,8.10
2022-09-23T02:26:04.145Z,8.40
2022-09-23T02:29:11.820Z,8.20
2022-09-23T02:32:15.944Z,9.10
2022-09-23T02:35:22.630Z,9.35
2022-09-23T02:38:30.424Z,8.90
2022-09-23T02:41:36.459Z,9.50
2022-09-23T02:44:39.770Z,11.48
2022-09-23T02:47:45.035Z,9.25
2022-09-23T02:50:49.169Z,8.40
2022-09-23T02:53:52.113Z,10.43
2022-09-23T02:56:55.118Z,10.02
2022-09-23T02:59:58.428Z,9.85
2022-09-23T03:03:18.661Z,9.27
2022-09-23T03:06:27.053Z,11.40
2022-09-23T03:09:31.819Z,7.78
2022-09-23T03:12:38.726Z,9.77
2022-09-23T03:15:46.093Z,11.27
2022-09-23T03:22:00.823Z,12.93
2022-09-23T03:25:05.929Z,12.20
2022-09-23T03:28:08.867Z,9.18
2022-09-23T03:31:12.009Z,8.85
2022-09-23T03:34:15.600Z,10.27
2022-09-23T03:37:22.170Z,8.80
2022-09-23T03:40:26.384Z,11.43
2022-09-23T03:43:30.064Z,10.68
2022-09-23T03:46:35.458Z,11.05
2022-09-23T03:49:39.231Z,11.27
2022-09-23T03:52:43.368Z,12.02
2022-09-23T03:55:46.581Z,10.45
2022-09-23T03:58:49.281Z,12.73
2022-09-23T04:01:52.140Z,8.63
2022-09-23T04:04:54.902Z,9.68
2022-09-23T04:07:58.983Z,10.20
2022-09-23T04:11:01.886Z,10.75
2022-09-23T04:14:04.672Z,9.85
2022-09-23T04:17:07.429Z,10.07
2022-09-23T04:20:10.780Z,9.95
2022-09-23T04:23:14.954Z,8.15
2022-09-23T04:26:19.037Z,21.58
2022-09-23T04:29:21.793Z,10.13
2022-09-23T04:32:25.217Z,9.55
2022-09-23T04:35:27.894Z,10.45
2022-09-23T04:38:32.077Z,9.65
2022-09-23T04:41:34.888Z,11.57
2022-09-23T04:44:38.950Z,13.55
2022-09-23T04:47:41.670Z,10.63
2022-09-23T04:50:44.387Z,9.20
2022-09-23T04:53:49.815Z,7.68
2022-09-23T04:56:52.570Z,10.73
2022-09-23T04:59:56.920Z,11.90
2022-09-23T05:02:59.805Z,13.27
2022-09-23T05:06:02.739Z,8.80
2022-09-23T05:09:08.550Z,9.23
2022-09-23T05:12:11.406Z,10.85
2022-09-23T05:15:15.130Z,10.25
2022-09-23T05:18:20.764Z,14.27
2022-09-23T05:21:24.504Z,9.80
2022-09-23T05:24:28.592Z,11.93
2022-09-23T05:27:31.314Z,13.52
2022-09-23T05:30:34.074Z,12.27
2022-09-23T05:33:37.401Z,12.27
2022-09-23T05:36:40.120Z,13.05
2022-09-23T05:39:44.187Z,12.32
2022-09-23T05:42:46.851Z,9.68
2022-09-23T05:45:49.540Z,10.25
2022-09-23T05:48:52.406Z,13.27
2022-09-23T05:51:55.060Z,11.48
2022-09-23T05:54:59.042Z,12.80
2022-09-23T05:58:01.705Z,11.73
2022-09-23T06:01:10.406Z,11.45
2022-09-23T06:04:14.016Z,12.02
2022-09-23T06:07:16.711Z,14.00
2022-09-23T06:10:20.799Z,14.20
2022-09-23T06:13:23.425Z,11.27
2022-09-23T06:16:26.110Z,12.10
2022-09-23T06:19:28.759Z,13.25
2022-09-23T06:22:31.624Z,14.77
2022-09-23T06:25:36.245Z,14.80
2022-09-23T06:28:40.342Z,11.55
2022-09-23T06:31:43.346Z,15.20
2022-09-23T06:34:51.474Z,11.38
2022-09-23T06:37:54.729Z,15.20
2022-09-23T06:40:59.071Z,9.50
2022-09-23T06:44:02.037Z,14.63
2022-09-23T06:47:04.747Z,13.85
2022-09-23T06:50:08.455Z,12.80
2022-09-23T06:53:11.178Z,14.25
2022-09-23T06:56:15.335Z,17.45
2022-09-23T06:59:18.309Z,22.35
2022-09-23T07:02:21.074Z,12.77
2022-09-23T07:05:24.082Z,14.40
2022-09-23T07:08:27.534Z,14.43
2022-09-23T07:11:31.560Z,12.88
2022-09-23T07:14:34.205Z,15.07
2022-09-23T07:17:36.951Z,16.17
2022-09-23T07:20:39.693Z,22.73
2022-09-23T07:23:42.595Z,11.93
2022-09-23T07:26:46.599Z,13.02
2022-09-23T07:29:50.334Z,12.25
2022-09-23T07:32:53.132Z,15.02
2022-09-23T07:35:55.832Z,17.27
2022-09-23T07:39:00.520Z,13.38
2022-09-23T07:42:05.695Z,10.55
2022-09-23T07:45:09.915Z,16.23
2022-09-23T07:48:12.513Z,16.98
2022-09-23T07:51:17.581Z,15.55
2022-09-23T07:54:20.196Z,15.30
2022-09-23T07:57:24.199Z,15.30
2022-09-23T08:00:26.901Z,16.85
2022-09-23T08:03:29.762Z,18.15
2022-09-23T08:06:32.737Z,11.80
2022-09-23T08:09:39.323Z,24.02
2022-09-23T08:12:43.338Z,18.70
2022-09-23T08:15:53.238Z,17.38
2022-09-23T08:18:57.942Z,22.15
2022-09-23T08:22:02.779Z,15.68
2022-09-23T08:25:08.878Z,20.30
2022-09-23T08:28:16.295Z,14.73
2022-09-23T08:31:18.946Z,16.37
2022-09-23T08:34:22.528Z,22.92
2022-09-23T08:37:25.107Z,15.98
2022-09-23T08:40:27.773Z,12.07
2022-09-23T08:43:32.674Z,16.27
2022-09-23T08:46:37.590Z,18.17
2022-09-23T08:49:46.311Z,16.08
2022-09-23T08:52:52.653Z,15.20
2022-09-23T08:55:55.994Z,13.00
2022-09-23T08:59:05.034Z,16.83
2022-09-23T09:02:10.413Z,14.80
2022-09-23T09:05:13.098Z,12.43
2022-09-23T09:08:24.428Z,12.85
2022-09-23T09:11:31.250Z,12.52
2022-09-23T09:14:38.604Z,16.10
2022-09-23T09:17:45.715Z,12.52
2022-09-23T09:20:52.840Z,12.25
2022-09-23T09:23:56.457Z,12.15
2022-09-23T09:26:59.064Z,20.13
2022-09-23T09:30:02.997Z,16.23
2022-09-23T09:33:06.748Z,17.52
2022-09-23T09:36:20.067Z,15.77
2022-09-23T09:39:26.113Z,13.48
2022-09-23T09:42:35.669Z,15.57
2022-09-23T09:45:59.082Z,11.07
2022-09-23T09:49:03.304Z,14.73
2022-09-23T09:52:24.069Z,14.40
2022-09-23T09:55:27.631Z,16.50
2022-09-23T09:58:33.535Z,13.52
2022-09-23T10:01:37.530Z,11.77
2022-09-23T10:04:40.476Z,14.60
2022-09-23T10:07:43.100Z,13.25
2022-09-23T10:10:54.815Z,10.38
2022-09-23T10:14:09.300Z,11.95
2022-09-23T10:17:16.514Z,22.30
2022-09-23T10:23:23.812Z,13.23
2022-09-23T10:26:27.746Z,15.15
2022-09-23T10:29:31.545Z,11.68
2022-09-23T10:32:37.463Z,13.38
2022-09-23T10:35:40.084Z,10.10
2022-09-23T10:38:42.664Z,13.93
2022-09-23T10:42:07.429Z,13.10
2022-09-23T10:45:37.551Z,15.57
2022-09-23T10:48:48.694Z,13.55
2022-09-23T10:51:55.167Z,12.13
2022-09-23T10:55:02.750Z,14.02
2022-09-23T10:58:14.332Z,13.05
2022-09-23T11:01:22.622Z,15.98
2022-09-23T11:04:46.205Z,18.58
2022-09-23T11:07:52.455Z,15.13
2022-09-23T11:11:03.877Z,15.00
2022-09-23T11:14:17.195Z,12.15
2022-09-23T11:17:33.393Z,12.98
2022-09-23T11:20:42.245Z,17.15
2022-09-23T11:23:55.204Z,14.82
2022-09-23T11:27:01.202Z,14.55
2022-09-23T11:30:08.941Z,13.82
2022-09-23T11:33:24.712Z,14.88
2022-09-23T11:36:32.627Z,17.15
2022-09-23T11:39:37.815Z,15.20
2022-09-23T11:42:43.927Z,14.15
2022-09-23T11:45:48.227Z,17.60
2022-09-23T11:48:52.745Z,10.55
2022-09-23T11:52:02.888Z,13.18
2022-09-23T11:55:18.633Z,12.15
2022-09-23T11:58:26.135Z,11.27
2022-09-23T12:01:37.263Z,9.98
2022-09-23T12:04:53.359Z,12.27
2022-09-23T12:08:02.843Z,11.98
2022-09-23T12:11:07.663Z,9.75
2022-09-23T12:14:14.106Z,6.43
2022-09-23T12:17:23.211Z,7.50
2022-09-23T12:20:36.729Z,12.30
2022-09-23T12:23:51.012Z,10.55
2022-09-23T12:26:56.118Z,12.30
2022-09-23T12:29:59.939Z,7.78
2022-09-23T12:33:09.953Z,12.35
2022-09-23T12:36:12.836Z,10.40
2022-09-23T12:39:18.161Z,12.82
2022-09-23T12:42:21.255Z,8.88
2022-09-23T12:45:38.882Z,16.25
2022-09-23T12:48:46.085Z,9.55
2022-09-23T12:52:13.605Z,11.55
2022-09-23T12:55:46.946Z,13.02
2022-09-23T12:59:14.549Z,13.75
2022-09-23T13:02:27.469Z,10.65
2022-09-23T13:05:47.730Z,10.73
2022-09-23T13:08:50.536Z,9.07
2022-09-23T13:11:54.565Z,15.75
2022-09-23T13:15:03.394Z,8.48
2022-09-23T13:18:40.047Z,7.60
2022-09-23T13:22:02.925Z,10.77
2022-09-23T13:25:16.966Z,11.60
2022-09-23T13:28:29.574Z,14.13
2022-09-23T13:31:32.228Z,11.38
2022-09-23T13:34:36.774Z,12.88
2022-09-23T13:37:43.770Z,9.50
2022-09-23T13:40:47.705Z,10.00
2022-09-23T13:43:52.523Z,10.73
2022-09-23T13:46:56.319Z,15.20
2022-09-23T13:49:58.940Z,9.68
2022-09-23T13:53:02.458Z,8.95
2022-09-23T13:56:06.547Z,10.52
2022-09-23T13:59:21.559Z,15.73
2022-09-23T14:02:25.797Z,12.43
2022-09-23T14:05:28.537Z,10.35
2022-09-23T14:08:31.200Z,14.35
2022-09-23T14:11:35.122Z,8.32
2022-09-23T14:14:40.058Z,11.48
2022-09-23T14:17:46.455Z,10.63
2022-09-23T14:20:50.271Z,12.52
2022-09-23T14:23:52.984Z,14.52
2022-09-23T14:26:56.562Z,12.20
2022-09-23T14:30:00.869Z,14.25
2022-09-23T14:33:08.528Z,11.90
2022-09-23T14:36:32.925Z,14.93
2022-09-23T14:39:34.561Z,22.38
2022-09-23T14:42:41.103Z,17.63
2022-09-23T14:45:47.176Z,15.77
2022-09-23T14:49:00.405Z,14.88
2022-09-23T14:52:06.817Z,20.55
2022-09-23T14:55:16.231Z,16.95
2022-09-23T14:58:19.175Z,13.38
2022-09-23T15:01:36.682Z,12.98
2022-09-23T15:07:41.925Z,15.68
2022-09-23T15:10:44.530Z,14.68
2022-09-23T15:13:49.387Z,16.35
2022-09-23T15:16:53.633Z,15.23
2022-09-23T15:19:57.626Z,14.15
2022-09-23T15:23:01.720Z,16.10
2022-09-23T15:26:06.817Z,19.83
2022-09-23T15:29:09.614Z,16.73
2022-09-23T15:32:13.642Z,19.15
2022-09-23T15:35:16.698Z,24.52
2022-09-23T15:38:19.234Z,18.70
2022-09-23T15:41:23.956Z,19.83
2022-09-23T15:44:29.497Z,16.52
2022-09-23T15:47:33.475Z,18.20
2022-09-23T15:50:36.244Z,20.25
2022-09-23T15:53:38.988Z,14.10
2022-09-23T15:56:42.613Z,15.18
2022-09-23T15:59:45.196Z,9.38
2022-09-23T16:02:49.702Z,11.40
2022-09-23T16:05:52.778Z,13.05
2022-09-23T16:08:55.497Z,7.18
2022-09-23T16:12:05.563Z,9.85
2022-09-23T16:15:11.982Z,9.32
2022-09-23T16:18:16.229Z,6.13
2022-09-23T16:21:19.681Z,10.30
2022-09-23T16:24:27.304Z,7.03
2022-09-23T16:27:30.724Z,4.15
2022-09-23T16:30:34.194Z,6.93
2022-09-23T16:33:38.211Z,8.25
2022-09-23T16:36:42.215Z,11.13
2022-09-23T16:39:44.816Z,9.20
2022-09-23T16:42:47.501Z,7.90
2022-09-23T16:45:50.170Z,8.32
2022-09-23T16:48:55.537Z,6.25
2022-09-23T16:51:58.301Z,7.13
2022-09-23T16:55:00.871Z,7.10
2022-09-23T16:58:04.585Z,9.27
2022-09-23T17:01:25.329Z,11.40
2022-09-23T17:04:29.377Z,11.43
2022-09-23T17:07:32.205Z,10.38
2022-09-23T17:10:34.796Z,8.27
2022-09-23T17:13:37.387Z,6.82
2022-09-23T17:16:40.096Z,10.65
2022-09-23T17:19:44.103Z,9.50
2022-09-23T17:22:46.664Z,8.20
2022-09-23T17:25:49.292Z,8.15
2022-09-23T17:28:52.003Z,10.13
2022-09-23T17:31:54.627Z,9.35
2022-09-23T17:35:04.312Z,9.10
2022-09-23T17:38:06.929Z,9.82
2022-09-23T17:41:09.896Z,14.20
2022-09-23T17:44:12.533Z,8.20
2022-09-23T17:47:15.131Z,9.85
2022-09-23T17:50:19.545Z,8.23
2022-09-23T17:53:22.282Z,8.95
2022-09-23T17:56:25.814Z,7.13
2022-09-23T17:59:28.409Z,9.13
2022-09-23T18:02:31.003Z,12.35
2022-09-23T18:05:35.149Z,8.38
2022-09-23T18:08:38.952Z,12.10
2022-09-23T18:11:42.785Z,9.88
2022-09-23T18:14:47.672Z,15.80
2022-09-23T18:17:50.520Z,15.60
2022-09-23T18:20:54.533Z,20.88
2022-09-23T18:24:06.491Z,20.02
2022-09-23T18:27:19.894Z,17.40
2022-09-23T18:30:22.510Z,12.63
2022-09-23T18:33:25.130Z,15.15
2022-09-23T18:36:30.200Z,12.07
2022-09-23T18:39:32.752Z,16.17
2022-09-23T18:42:35.472Z,19.30
2022-09-23T18:45:38.127Z,15.73
2022-09-23T18:48:58.570Z,14.35
2022-09-23T18:52:03.157Z,17.85
2022-09-23T18:55:06.407Z,18.13
2022-09-23T18:58:10.355Z,16.88
2022-09-23T19:01:13.018Z,14.57
2022-09-23T19:04:17.094Z,17.30
2022-09-23T19:07:21.073Z,10.80
2022-09-23T19:10:23.670Z,13.65
2022-09-23T19:13:26.302Z,14.77
2022-09-23T19:16:29.223Z,14.27
2022-09-23T19:19:32.030Z,13.60
2022-09-23T19:22:36.003Z,12.98
2022-09-23T19:25:38.596Z,10.80
2022-09-23T19:28:41.307Z,12.20
2022-09-23T19:31:44.160Z,10.18
2022-09-23T19:34:46.825Z,10.85
2022-09-23T19:37:50.770Z,11.07
2022-09-23T19:40:53.810Z,11.57
2022-09-23T19:44:03.221Z,9.48
2022-09-23T19:47:06.319Z,10.35
2022-09-23T19:50:09.603Z,14.82
2022-09-23T19:53:13.811Z,10.43
2022-09-23T19:56:17.979Z,10.80
2022-09-23T19:59:20.592Z,9.25
2022-09-23T20:02:23.189Z,6.95
2022-09-23T20:05:26.894Z,12.38
2022-09-23T20:08:30.974Z,8.20
2022-09-23T20:11:34.524Z,10.15
2022-09-23T20:14:37.116Z,9.10
2022-09-23T20:17:40.769Z,9.80
2022-09-23T20:20:43.481Z,10.77
2022-09-23T20:23:47.430Z,8.60
2022-09-23T20:27:07.681Z,11.73
2022-09-23T20:30:11.889Z,10.68
2022-09-23T20:33:15.160Z,9.25
2022-09-23T20:36:17.735Z,13.13
2022-09-23T20:39:21.929Z,12.48
2022-09-23T20:42:24.564Z,12.88
2022-09-23T20:45:27.211Z,13.13
2022-09-23T20:48:30.388Z,16.42
2022-09-23T20:51:34.013Z,14.52
2022-09-23T20:54:39.176Z,16.30
2022-09-23T20:57:41.812Z,15.20
2022-09-23T21:00:44.464Z,19.55
2022-09-23T21:03:48.021Z,18.92
2022-09-23T21:06:50.580Z,17.92
2022-09-23T21:09:54.801Z,24.88
2022-09-23T21:12:57.457Z,22.85
2022-09-23T21:16:03.178Z,22.27
2022-09-23T21:19:08.124Z,20.33
2022-09-23T21:22:12.254Z,23.77
2022-09-23T21:25:27.349Z,21.90
2022-09-23T21:28:32.258Z,22.85
2022-09-23T21:31:36.132Z,25.20
2022-09-23T21:34:38.720Z,23.20
2022-09-23T21:37:41.306Z,25.70
2022-09-23T21:40:57.498Z,23.38
2022-09-23T21:44:00.654Z,23.77
2022-09-23T21:47:03.450Z,26.13
2022-09-23T21:50:07.345Z,28.17
2022-09-23T21:53:09.952Z,24.88
2022-09-23T21:56:20.278Z,26.83
2022-09-23T21:59:23.402Z,28.25
2022-09-23T22:02:25.980Z,33.42
2022-09-23T22:05:28.571Z,25.23
2022-09-23T22:08:34.996Z,32.17
2022-09-23T22:11:56.877Z,30.27
2022-09-23T22:14:59.429Z,30.02
2022-09-23T22:18:02.289Z,30.30
2022-09-23T22:21:05.261Z,38.15
2022-09-23T22:24:09.306Z,28.90
2022-09-23T22:27:13.984Z,29.00
2022-09-23T22:30:34.251Z,26.08
2022-09-23T22:33:36.837Z,27.65
2022-09-23T22:36:39.393Z,21.13
2022-09-23T22:39:41.946Z,22.33
2022-09-23T22:42:46.114Z,22.65
2022-09-23T22:45:50.523Z,22.00
2022-09-23T22:48:53.384Z,24.63
2022-09-23T22:51:55.988Z,20.45
2022-09-23T22:54:58.549Z,21.15
2022-09-23T22:58:21.267Z,20.98
2022-09-23T23:01:25.692Z,19.70
2022-09-23T23:04:29.686Z,22.63
2022-09-23T23:07:34.094Z,26.90
2022-09-23T23:10:37.331Z,20.27
2022-09-23T23:13:41.798Z,20.85
2022-09-23T23:16:45.091Z,19.27
2022-09-23T23:19:48.146Z,18.10
2022-09-23T23:22:50.713Z,21.52
2022-09-23T23:25:53.321Z,20.13
2022-09-23T23:28:57.591Z,16.83
2022-09-23T23:32:00.152Z,19.92
2022-09-23T23:35:02.715Z,16.17
2022-09-23T23:38:06.411Z,17.67
2022-09-23T23:41:10.884Z,19.25
2022-09-23T23:44:14.880Z,17.80
2022-09-23T23:47:17.460Z,18.95
2022-09-23T23:50:20.073Z,15.93
2022-09-23T23:53:22.648Z,17.35
2022-09-23T23:56:25.687Z,16.88
2022-09-23T23:59:29.645Z,14.75
